createdAt,value
2023-01-12T00:00:30.577Z,0.00
2023-01-12T00:01:30.487Z,0.00
2023-01-12T00:02:30.530Z,0.00
2023-01-12T00:03:30.456Z,0.00
2023-01-12T00:04:30.549Z,0.00
2023-01-12T00:05:30.471Z,0.00
2023-01-12T00:06:30.445Z,0.00
2023-01-12T00:07:30.419Z,0.00
2023-01-12T00:08:30.415Z,0.00
2023-01-12T00:09:30.419Z,0.00
2023-01-12T00:10:30.459Z,0.00
2023-01-12T00:11:30.409Z,0.00
2023-01-12T00:12:30.403Z,0.00
2023-01-12T00:13:30.358Z,0.00
2023-01-12T00:14:30.347Z,0.00
2023-01-12T00:15:30.362Z,0.00
2023-01-12T00:16:30.355Z,0.00
2023-01-12T00:17:30.345Z,0.00
2023-01-12T00:18:30.320Z,0.00
2023-01-12T00:19:30.307Z,0.00
2023-01-12T00:20:30.294Z,0.00
2023-01-12T00:21:30.301Z,0.00
2023-01-12T00:22:30.285Z,0.00
2023-01-12T00:23:30.295Z,0.00
2023-01-12T00:24:30.267Z,0.00
2023-01-12T00:25:30.244Z,0.00
2023-01-12T00:26:30.241Z,0.00
2023-01-12T00:27:30.243Z,0.00
2023-01-12T00:28:30.218Z,0.00
2023-01-12T00:29:30.221Z,0.00
2023-01-12T00:30:30.193Z,0.00
2023-01-12T00:31:30.230Z,0.00
2023-01-12T00:32:30.191Z,0.00
2023-01-12T00:33:30.194Z,0.00
2023-01-12T00:34:30.180Z,0.00
2023-01-12T00:35:30.161Z,0.00
2023-01-12T00:36:30.142Z,0.00
2023-01-12T00:37:30.145Z,0.00
2023-01-12T00:38:30.130Z,0.00
2023-01-12T00:39:30.114Z,0.00
2023-01-12T00:40:30.109Z,0.00
2023-01-12T00:41:30.107Z,0.00
2023-01-12T00:42:30.101Z,0.00
2023-01-12T00:43:30.083Z,0.00
2023-01-12T00:44:30.083Z,0.00
2023-01-12T00:45:30.069Z,0.00
2023-01-12T00:46:30.114Z,0.00
2023-01-12T00:47:30.067Z,0.00
2023-01-12T00:48:30.087Z,0.00
2023-01-12T00:49:30.045Z,0.00
2023-01-12T00:50:30.030Z,0.00
2023-01-12T00:51:30.002Z,0.00
2023-01-12T00:52:31.422Z,0.00
2023-01-12T00:53:30.024Z,0.00
2023-01-12T00:54:29.962Z,0.00
2023-01-12T00:55:29.992Z,0.00
2023-01-12T00:56:30.083Z,0.00
2023-01-12T00:57:29.957Z,0.00
2023-01-12T00:58:29.925Z,0.00
2023-01-12T00:59:29.938Z,0.00
2023-01-12T01:00:29.927Z,0.00
2023-01-12T01:01:30.064Z,0.00
2023-01-12T01:02:29.947Z,0.00
2023-01-12T01:03:29.868Z,0.00
2023-01-12T01:04:29.896Z,0.00
2023-01-12T01:05:29.853Z,0.00
2023-01-12T01:06:29.853Z,0.00
2023-01-12T01:07:29.878Z,0.00
2023-01-12T01:08:29.827Z,0.00
2023-01-12T01:09:29.812Z,0.00
2023-01-12T01:10:29.835Z,0.00
2023-01-12T01:11:29.799Z,0.00
2023-01-12T01:12:29.793Z,0.00
2023-01-12T01:13:29.807Z,0.00
2023-01-12T01:14:29.766Z,0.00
2023-01-12T01:15:29.751Z,0.00
2023-01-12T01:16:29.756Z,0.00
2023-01-12T01:17:29.732Z,0.00
2023-01-12T01:18:29.733Z,0.00
2023-01-12T01:19:29.717Z,0.00
2023-01-12T01:20:29.722Z,0.00
2023-01-12T01:21:29.706Z,0.00
2023-01-12T01:22:29.696Z,0.00
2023-01-12T01:23:29.701Z,0.00
2023-01-12T01:24:29.690Z,0.00
2023-01-12T01:25:29.688Z,0.00
2023-01-12T01:26:29.646Z,0.00
2023-01-12T01:27:29.633Z,0.00
2023-01-12T01:28:29.632Z,0.00
2023-01-12T01:29:29.637Z,0.00
2023-01-12T01:30:29.621Z,0.00
2023-01-12T01:31:29.693Z,0.00
2023-01-12T01:32:29.615Z,0.00
2023-01-12T01:33:29.575Z,0.00
2023-01-12T01:34:29.595Z,0.00
2023-01-12T01:35:29.553Z,0.00
2023-01-12T01:36:29.561Z,0.00
2023-01-12T01:37:29.558Z,0.00
2023-01-12T01:38:29.525Z,0.00
2023-01-12T01:39:29.522Z,0.00
2023-01-12T01:40:29.528Z,0.00
2023-01-12T01:41:29.517Z,0.00
2023-01-12T01:42:29.514Z,0.00
2023-01-12T01:43:29.523Z,0.00
2023-01-12T01:44:29.507Z,0.00
2023-01-12T01:45:29.458Z,0.00
2023-01-12T01:46:29.524Z,0.00
2023-01-12T01:47:29.440Z,0.00
2023-01-12T01:48:29.425Z,0.00
2023-01-12T01:49:29.417Z,0.00
2023-01-12T01:50:29.434Z,0.00
2023-01-12T01:51:29.398Z,0.00
2023-01-12T01:52:29.394Z,0.00
2023-01-12T01:53:29.394Z,0.00
2023-01-12T01:54:29.375Z,0.00
2023-01-12T01:55:29.364Z,0.00
2023-01-12T01:56:29.415Z,0.00
2023-01-12T01:57:29.339Z,0.00
2023-01-12T01:58:29.332Z,0.00
2023-01-12T01:59:29.348Z,0.00
2023-01-12T02:00:29.310Z,0.00
2023-01-12T02:01:29.461Z,0.00
2023-01-12T02:02:29.453Z,0.00
2023-01-12T02:03:30.597Z,0.00
2023-01-12T02:04:29.292Z,0.00
2023-01-12T02:05:29.282Z,0.00
2023-01-12T02:06:29.262Z,0.00
2023-01-12T02:07:29.271Z,0.00
2023-01-12T02:08:29.250Z,0.00
2023-01-12T02:09:29.246Z,0.00
2023-01-12T02:10:29.217Z,0.00
2023-01-12T02:11:29.214Z,0.00
2023-01-12T02:12:29.254Z,0.00
2023-01-12T02:13:29.192Z,0.00
2023-01-12T02:14:29.202Z,0.00
2023-01-12T02:15:29.164Z,0.00
2023-01-12T02:16:29.284Z,0.00
2023-01-12T02:17:29.155Z,0.00
2023-01-12T02:18:29.159Z,0.00
2023-01-12T02:19:29.135Z,0.00
2023-01-12T02:20:29.130Z,0.00
2023-01-12T02:21:29.154Z,0.00
2023-01-12T02:22:29.097Z,0.00
2023-01-12T02:23:29.087Z,0.00
2023-01-12T02:24:29.114Z,0.00
2023-01-12T02:25:29.072Z,0.00
2023-01-12T02:26:29.062Z,0.00
2023-01-12T02:27:29.043Z,0.00
2023-01-12T02:28:29.060Z,0.00
2023-01-12T02:29:29.027Z,0.00
2023-01-12T02:30:29.039Z,0.00
2023-01-12T02:31:29.152Z,0.00
2023-01-12T02:32:29.022Z,0.00
2023-01-12T02:33:28.984Z,0.00
2023-01-12T02:34:28.973Z,0.00
2023-01-12T02:35:28.987Z,0.00
2023-01-12T02:36:28.978Z,0.00
2023-01-12T02:37:28.960Z,0.00
2023-01-12T02:38:28.958Z,0.00
2023-01-12T02:39:28.923Z,0.00
2023-01-12T02:40:28.920Z,0.00
2023-01-12T02:41:28.914Z,0.00
2023-01-12T02:42:28.948Z,0.00
2023-01-12T02:43:28.907Z,0.00
2023-01-12T02:44:28.890Z,0.00
2023-01-12T02:45:28.873Z,0.00
2023-01-12T02:46:28.909Z,0.00
2023-01-12T02:47:28.868Z,0.00
2023-01-12T02:48:28.854Z,0.00
2023-01-12T02:49:28.828Z,0.00
2023-01-12T02:50:28.830Z,0.00
2023-01-12T02:51:29.566Z,0.00
2023-01-12T02:52:28.796Z,0.00
2023-01-12T02:53:28.793Z,0.00
2023-01-12T02:54:28.791Z,0.00
2023-01-12T02:55:28.767Z,0.00
2023-01-12T02:56:28.783Z,0.00
2023-01-12T02:57:28.754Z,0.00
2023-01-12T02:58:28.752Z,0.00
2023-01-12T02:59:28.734Z,0.00
2023-01-12T03:00:28.777Z,0.00
2023-01-12T03:01:28.751Z,0.00
2023-01-12T03:02:28.728Z,0.00
2023-01-12T03:03:28.715Z,0.00
2023-01-12T03:04:28.684Z,0.00
2023-01-12T03:05:28.668Z,0.00
2023-01-12T03:06:28.677Z,0.00
2023-01-12T03:07:28.675Z,0.00
2023-01-12T03:08:28.660Z,0.00
2023-01-12T03:09:28.650Z,0.00
2023-01-12T03:10:28.670Z,0.00
2023-01-12T03:11:28.609Z,0.00
2023-01-12T03:12:28.605Z,0.00
2023-01-12T03:13:28.592Z,0.00
2023-01-12T03:14:28.590Z,0.00
2023-01-12T03:15:28.577Z,0.00
2023-01-12T03:16:28.667Z,0.00
2023-01-12T03:17:28.586Z,0.00
2023-01-12T03:18:28.551Z,0.00
2023-01-12T03:19:28.531Z,0.00
2023-01-12T03:20:28.548Z,0.00
2023-01-12T03:21:28.550Z,0.00
2023-01-12T03:22:28.519Z,0.00
2023-01-12T03:23:28.500Z,0.00
2023-01-12T03:24:28.494Z,0.00
2023-01-12T03:25:28.469Z,0.00
2023-01-12T03:26:28.485Z,0.00
2023-01-12T03:27:28.485Z,0.00
2023-01-12T03:28:28.465Z,0.00
2023-01-12T03:29:28.464Z,0.00
2023-01-12T03:30:28.426Z,0.00
2023-01-12T03:31:28.425Z,0.00
2023-01-12T03:32:28.418Z,0.00
2023-01-12T03:33:28.428Z,0.00
2023-01-12T03:34:28.402Z,0.00
2023-01-12T03:35:28.380Z,0.00
2023-01-12T03:36:28.371Z,0.00
2023-01-12T03:37:28.362Z,0.00
2023-01-12T03:38:28.391Z,0.00
2023-01-12T03:39:28.338Z,0.00
2023-01-12T03:40:28.336Z,0.00
2023-01-12T03:41:28.329Z,0.00
2023-01-12T03:42:28.327Z,0.00
2023-01-12T03:43:28.319Z,0.00
2023-01-12T03:44:28.345Z,0.00
2023-01-12T03:45:28.304Z,0.00
2023-01-12T03:46:28.288Z,0.00
2023-01-12T03:47:28.260Z,0.00
2023-01-12T03:48:28.252Z,0.00
2023-01-12T03:49:28.263Z,0.00
2023-01-12T03:50:28.235Z,0.00
2023-01-12T03:51:28.241Z,0.00
2023-01-12T03:52:28.237Z,0.00
2023-01-12T03:53:28.200Z,0.00
2023-01-12T03:54:28.200Z,0.00
2023-01-12T03:55:28.186Z,0.00
2023-01-12T03:56:28.207Z,0.00
2023-01-12T03:57:28.189Z,0.00
2023-01-12T03:58:28.161Z,0.00
2023-01-12T03:59:28.164Z,0.00
2023-01-12T04:00:28.150Z,0.00
2023-01-12T04:01:28.262Z,0.00
2023-01-12T04:02:28.144Z,0.00
2023-01-12T04:03:28.226Z,0.00
2023-01-12T04:04:28.119Z,0.00
2023-01-12T04:05:28.105Z,0.00
2023-01-12T04:06:28.083Z,0.00
2023-01-12T04:07:28.069Z,0.00
2023-01-12T04:08:28.097Z,0.00
2023-01-12T04:09:28.048Z,0.00
2023-01-12T04:10:28.048Z,0.00
2023-01-12T04:11:28.041Z,0.00
2023-01-12T04:12:28.027Z,0.00
2023-01-12T04:13:28.015Z,0.00
2023-01-12T04:14:28.020Z,0.00
2023-01-12T04:15:27.984Z,0.00
2023-01-12T04:16:28.080Z,0.00
2023-01-12T04:17:28.017Z,0.00
2023-01-12T04:18:27.963Z,0.00
2023-01-12T04:19:27.949Z,0.00
2023-01-12T04:20:27.960Z,0.00
2023-01-12T04:21:27.938Z,0.00
2023-01-12T04:22:27.942Z,0.00
2023-01-12T04:23:27.928Z,0.00
2023-01-12T04:24:27.910Z,0.00
2023-01-12T04:25:27.913Z,0.00
2023-01-12T04:26:27.899Z,0.00
2023-01-12T04:27:27.868Z,0.00
2023-01-12T04:28:27.880Z,0.00
2023-01-12T04:29:27.854Z,0.00
2023-01-12T04:30:27.897Z,0.00
2023-01-12T04:31:27.848Z,0.00
2023-01-12T04:32:27.840Z,0.00
2023-01-12T04:33:27.817Z,0.00
2023-01-12T04:34:27.820Z,0.00
2023-01-12T04:35:27.848Z,0.00
2023-01-12T04:36:27.800Z,0.00
2023-01-12T04:37:27.785Z,0.00
2023-01-12T04:38:27.770Z,0.00
2023-01-12T04:39:27.756Z,0.00
2023-01-12T04:40:27.750Z,0.00
2023-01-12T04:41:27.762Z,0.00
2023-01-12T04:42:27.752Z,0.00
2023-01-12T04:43:27.717Z,0.00
2023-01-12T04:44:27.713Z,0.00
2023-01-12T04:45:27.729Z,0.00
2023-01-12T04:46:27.710Z,0.00
2023-01-12T04:47:27.686Z,0.00
2023-01-12T04:48:27.708Z,0.00
2023-01-12T04:49:27.650Z,0.00
2023-01-12T04:50:27.676Z,0.00
2023-01-12T04:51:27.633Z,0.00
2023-01-12T04:52:27.666Z,0.00
2023-01-12T04:53:27.694Z,0.00
2023-01-12T04:54:27.634Z,0.00
2023-01-12T04:55:27.601Z,0.00
2023-01-12T04:56:27.596Z,0.00
2023-01-12T04:57:27.581Z,0.00
2023-01-12T04:58:27.643Z,0.00
2023-01-12T04:59:27.570Z,0.00
2023-01-12T05:00:27.636Z,0.00
2023-01-12T05:01:27.634Z,0.00
2023-01-12T05:02:27.552Z,0.00
2023-01-12T05:03:27.626Z,0.00
2023-01-12T05:04:27.532Z,0.00
2023-01-12T05:05:27.511Z,0.00
2023-01-12T05:06:27.504Z,0.00
2023-01-12T05:07:27.483Z,0.00
2023-01-12T05:08:27.483Z,0.00
2023-01-12T05:09:27.468Z,0.00
2023-01-12T05:10:27.483Z,0.00
2023-01-12T05:11:27.444Z,0.00
2023-01-12T05:12:27.433Z,0.00
2023-01-12T05:13:27.419Z,0.00
2023-01-12T05:14:27.410Z,0.00
2023-01-12T05:15:27.409Z,0.00
2023-01-12T05:16:27.462Z,0.00
2023-01-12T05:17:27.392Z,0.00
2023-01-12T05:18:27.416Z,0.00
2023-01-12T05:19:27.355Z,0.00
2023-01-12T05:20:27.358Z,0.00
2023-01-12T05:21:27.416Z,0.00
2023-01-12T05:22:27.356Z,0.00
2023-01-12T05:23:27.323Z,0.00
2023-01-12T05:24:27.320Z,0.00
2023-01-12T05:25:27.316Z,0.00
2023-01-12T05:26:27.296Z,0.00
2023-01-12T05:27:27.298Z,0.00
2023-01-12T05:28:27.272Z,0.00
2023-01-12T05:29:27.276Z,0.00
2023-01-12T05:30:27.297Z,0.00
2023-01-12T05:31:27.290Z,0.00
2023-01-12T05:32:27.280Z,0.00
2023-01-12T05:33:27.237Z,0.00
2023-01-12T05:34:27.216Z,0.00
2023-01-12T05:35:27.282Z,0.00
2023-01-12T05:36:27.242Z,0.00
2023-01-12T05:37:27.182Z,0.00
2023-01-12T05:38:27.194Z,0.00
2023-01-12T05:39:27.167Z,0.00
2023-01-12T05:40:27.176Z,0.00
2023-01-12T05:41:27.159Z,0.00
2023-01-12T05:42:27.187Z,0.00
2023-01-12T05:43:27.123Z,0.00
2023-01-12T05:44:27.118Z,0.00
2023-01-12T05:45:27.155Z,0.00
2023-01-12T05:46:27.112Z,0.00
2023-01-12T05:47:27.090Z,0.00
2023-01-12T05:48:27.097Z,0.00
2023-01-12T05:49:27.061Z,0.00
2023-01-12T05:50:27.063Z,0.00
2023-01-12T05:51:27.088Z,0.00
2023-01-12T05:52:27.073Z,0.00
2023-01-12T05:53:27.178Z,0.00
2023-01-12T05:54:27.052Z,0.00
2023-01-12T05:55:27.024Z,0.00
2023-01-12T05:56:27.008Z,0.00
2023-01-12T05:57:27.000Z,0.00
2023-01-12T05:58:27.002Z,0.00
2023-01-12T05:59:27.012Z,0.00
2023-01-12T06:00:26.990Z,0.00
2023-01-12T06:01:27.010Z,0.00
2023-01-12T06:02:26.971Z,0.00
2023-01-12T06:03:27.943Z,0.00
2023-01-12T06:04:27.067Z,0.00
2023-01-12T06:05:26.913Z,0.00
2023-01-12T06:06:26.966Z,0.00
2023-01-12T06:07:27.091Z,0.00
2023-01-12T06:08:26.887Z,0.00
2023-01-12T06:09:26.907Z,0.00
2023-01-12T06:10:26.926Z,0.00
2023-01-12T06:11:26.906Z,0.00
2023-01-12T06:12:26.966Z,0.00
2023-01-12T06:13:26.930Z,0.00
2023-01-12T06:14:26.911Z,0.00
2023-01-12T06:15:26.956Z,0.00
2023-01-12T06:16:26.853Z,0.00
2023-01-12T06:17:26.861Z,0.00
2023-01-12T06:18:26.806Z,0.00
2023-01-12T06:19:26.837Z,0.00
2023-01-12T06:20:26.780Z,0.00
2023-01-12T06:21:26.749Z,0.00
2023-01-12T06:22:26.753Z,0.00
2023-01-12T06:23:35.229Z,0.00
2023-01-12T06:24:26.745Z,0.00
2023-01-12T06:25:26.777Z,0.00
2023-01-12T06:26:26.959Z,0.00
2023-01-12T06:27:26.732Z,0.00
2023-01-12T06:28:26.693Z,0.00
2023-01-12T06:29:26.695Z,0.00
2023-01-12T06:30:26.690Z,0.00
2023-01-12T06:31:26.710Z,0.00
2023-01-12T06:32:26.678Z,0.00
2023-01-12T06:33:26.592Z,0.00
2023-01-12T06:34:26.604Z,0.00
2023-01-12T06:35:26.742Z,0.00
2023-01-12T06:36:26.656Z,0.00
2023-01-12T06:37:26.606Z,0.00
2023-01-12T06:38:26.584Z,0.00
2023-01-12T06:39:26.535Z,0.00
2023-01-12T06:40:26.509Z,0.00
2023-01-12T06:41:26.594Z,0.00
2023-01-12T06:42:26.542Z,0.00
2023-01-12T06:43:26.597Z,0.00
2023-01-12T06:44:26.505Z,0.00
2023-01-12T06:45:26.505Z,0.00
2023-01-12T06:46:26.525Z,0.00
2023-01-12T06:47:26.465Z,0.00
2023-01-12T06:48:26.435Z,0.00
2023-01-12T06:49:26.455Z,0.00
2023-01-12T06:50:26.426Z,0.00
2023-01-12T06:51:26.418Z,0.00
2023-01-12T06:52:26.423Z,0.00
2023-01-12T06:53:26.423Z,0.00
2023-01-12T06:54:26.416Z,0.00
2023-01-12T06:55:26.373Z,0.00
2023-01-12T06:56:26.359Z,0.00
2023-01-12T06:57:26.356Z,0.00
2023-01-12T06:58:26.359Z,0.00
2023-01-12T06:59:26.350Z,0.00
2023-01-12T07:00:26.332Z,5.62
2023-01-12T07:01:26.514Z,5.62
2023-01-12T07:02:26.292Z,5.62
2023-01-12T07:03:26.323Z,5.62
2023-01-12T07:04:26.320Z,5.62
2023-01-12T07:05:26.292Z,5.62
2023-01-12T07:06:26.250Z,5.62
2023-01-12T07:07:26.249Z,5.62
2023-01-12T07:08:26.248Z,5.62
2023-01-12T07:09:26.231Z,5.62
2023-01-12T07:10:26.231Z,5.62
2023-01-12T07:11:26.261Z,5.62
2023-01-12T07:12:26.192Z,5.62
2023-01-12T07:13:26.187Z,11.25
2023-01-12T07:14:26.188Z,11.25
2023-01-12T07:15:26.172Z,11.25
2023-01-12T07:16:26.154Z,11.25
2023-01-12T07:17:26.158Z,11.25
2023-01-12T07:18:26.159Z,11.25
2023-01-12T07:19:26.144Z,11.25
2023-01-12T07:20:26.154Z,11.25
2023-01-12T07:21:26.110Z,11.25
2023-01-12T07:22:26.107Z,11.25
2023-01-12T07:23:26.121Z,11.25
2023-01-12T07:24:26.071Z,11.25
2023-01-12T07:25:26.084Z,16.88
2023-01-12T07:26:26.067Z,16.88
2023-01-12T07:27:26.093Z,16.88
2023-01-12T07:28:26.052Z,22.50
2023-01-12T07:29:26.027Z,22.50
2023-01-12T07:30:26.071Z,22.50
2023-01-12T07:31:26.105Z,28.12
2023-01-12T07:32:26.010Z,33.75
2023-01-12T07:33:25.987Z,33.75
2023-01-12T07:34:25.998Z,39.38
2023-01-12T07:35:25.972Z,45.00
2023-01-12T07:36:25.989Z,50.62
2023-01-12T07:37:25.943Z,61.88
2023-01-12T07:38:25.974Z,67.50
2023-01-12T07:39:25.923Z,73.12
2023-01-12T07:40:25.923Z,84.38
2023-01-12T07:41:25.909Z,90.00
2023-01-12T07:42:25.943Z,95.62
2023-01-12T07:43:25.894Z,101.25
2023-01-12T07:44:25.889Z,112.50
2023-01-12T07:45:25.872Z,118.12
2023-01-12T07:46:26.003Z,118.12
2023-01-12T07:47:25.869Z,123.75
2023-01-12T07:48:25.856Z,123.75
2023-01-12T07:49:25.843Z,123.75
2023-01-12T07:50:25.827Z,123.75
2023-01-12T07:51:25.961Z,118.12
2023-01-12T07:52:25.801Z,112.50
2023-01-12T07:53:25.810Z,106.88
2023-01-12T07:54:25.780Z,101.25
2023-01-12T07:55:25.767Z,95.62
2023-01-12T07:56:25.809Z,95.62
2023-01-12T07:57:25.753Z,90.00
2023-01-12T07:58:26.188Z,95.62
2023-01-12T07:59:25.738Z,95.62
2023-01-12T08:00:25.742Z,95.62
2023-01-12T08:01:25.960Z,95.62
2023-01-12T08:02:25.751Z,95.62
2023-01-12T08:03:25.740Z,95.62
2023-01-12T08:04:25.769Z,95.62
2023-01-12T08:05:25.730Z,90.00
2023-01-12T08:06:25.695Z,90.00
2023-01-12T08:07:25.700Z,95.62
2023-01-12T08:08:25.716Z,95.62
2023-01-12T08:09:25.668Z,95.62
2023-01-12T08:10:25.932Z,101.25
2023-01-12T08:11:25.633Z,101.25
2023-01-12T08:12:25.624Z,106.88
2023-01-12T08:13:25.632Z,112.50
2023-01-12T08:14:27.347Z,118.12
2023-01-12T08:15:25.565Z,123.75
2023-01-12T08:16:25.591Z,129.38
2023-01-12T08:17:25.553Z,129.38
2023-01-12T08:18:25.574Z,135.00
2023-01-12T08:19:25.550Z,140.62
2023-01-12T08:20:25.514Z,151.88
2023-01-12T08:21:25.534Z,146.25
2023-01-12T08:22:25.516Z,151.88
2023-01-12T08:23:25.491Z,151.88
2023-01-12T08:24:25.540Z,157.50
2023-01-12T08:25:25.473Z,157.50
2023-01-12T08:26:25.463Z,163.12
2023-01-12T08:27:25.474Z,163.12
2023-01-12T08:28:25.437Z,163.12
2023-01-12T08:29:25.430Z,157.50
2023-01-12T08:30:25.407Z,146.25
2023-01-12T08:31:25.448Z,140.62
2023-01-12T08:32:25.431Z,135.00
2023-01-12T08:33:25.450Z,135.00
2023-01-12T08:34:25.384Z,135.00
2023-01-12T08:35:25.373Z,140.62
2023-01-12T08:36:25.369Z,140.62
2023-01-12T08:37:25.363Z,140.62
2023-01-12T08:38:25.370Z,140.62
2023-01-12T08:39:25.343Z,140.62
2023-01-12T08:40:25.349Z,140.62
2023-01-12T08:41:25.308Z,135.00
2023-01-12T08:42:26.527Z,135.00
2023-01-12T08:43:25.286Z,135.00
2023-01-12T08:44:25.279Z,135.00
2023-01-12T08:45:25.300Z,135.00
2023-01-12T08:46:25.375Z,140.62
2023-01-12T08:47:25.248Z,146.25
2023-01-12T08:48:25.231Z,146.25
2023-01-12T08:49:25.275Z,151.88
2023-01-12T08:50:25.293Z,157.50
2023-01-12T08:51:25.220Z,163.12
2023-01-12T08:52:25.269Z,168.75
2023-01-12T08:53:25.250Z,168.75
2023-01-12T08:54:25.364Z,174.38
2023-01-12T08:55:25.194Z,174.38
2023-01-12T08:56:25.149Z,180.00
2023-01-12T08:57:25.146Z,185.62
2023-01-12T08:58:25.146Z,185.62
2023-01-12T08:59:25.137Z,191.25
2023-01-12T09:00:25.220Z,191.25
2023-01-12T09:01:25.399Z,191.25
2023-01-12T09:02:25.127Z,196.88
2023-01-12T09:03:25.085Z,191.25
2023-01-12T09:04:25.089Z,196.88
2023-01-12T09:05:25.083Z,202.50
2023-01-12T09:06:25.067Z,213.75
2023-01-12T09:07:25.102Z,230.62
2023-01-12T09:08:25.042Z,253.12
2023-01-12T09:09:25.031Z,258.75
2023-01-12T09:10:25.020Z,275.62
2023-01-12T09:11:25.005Z,281.25
2023-01-12T09:12:25.015Z,286.88
2023-01-12T09:13:24.986Z,286.88
2023-01-12T09:14:24.989Z,286.88
2023-01-12T09:15:24.971Z,281.25
2023-01-12T09:16:25.003Z,275.62
2023-01-12T09:17:24.974Z,275.62
2023-01-12T09:18:24.943Z,270.00
2023-01-12T09:19:24.938Z,264.38
2023-01-12T09:20:24.919Z,258.75
2023-01-12T09:21:24.901Z,253.12
2023-01-12T09:22:24.895Z,253.12
2023-01-12T09:23:24.904Z,253.12
2023-01-12T09:24:24.871Z,253.12
2023-01-12T09:25:24.897Z,253.12
2023-01-12T09:26:24.849Z,253.12
2023-01-12T09:27:24.851Z,253.12
2023-01-12T09:28:24.833Z,253.12
2023-01-12T09:29:24.834Z,253.12
2023-01-12T09:30:24.841Z,253.12
2023-01-12T09:31:24.846Z,253.12
2023-01-12T09:32:29.203Z,253.12
2023-01-12T09:33:24.809Z,253.12
2023-01-12T09:34:24.813Z,258.75
2023-01-12T09:35:24.774Z,264.38
2023-01-12T09:36:24.756Z,270.00
2023-01-12T09:37:24.752Z,275.62
2023-01-12T09:38:24.740Z,275.62
2023-01-12T09:39:28.617Z,275.62
2023-01-12T09:40:24.813Z,275.62
2023-01-12T09:41:24.713Z,275.62
2023-01-12T09:42:24.708Z,281.25
2023-01-12T09:43:24.683Z,281.25
2023-01-12T09:44:24.715Z,281.25
2023-01-12T09:45:24.678Z,286.88
2023-01-12T09:46:24.664Z,286.88
2023-01-12T09:47:24.644Z,292.50
2023-01-12T09:48:24.640Z,298.12
2023-01-12T09:49:24.625Z,303.75
2023-01-12T09:50:24.632Z,303.75
2023-01-12T09:51:24.614Z,309.38
2023-01-12T09:52:24.601Z,315.00
2023-01-12T09:53:24.604Z,320.62
2023-01-12T09:54:24.610Z,326.25
2023-01-12T09:55:24.625Z,331.88
2023-01-12T09:56:24.557Z,337.50
2023-01-12T09:57:29.001Z,348.75
2023-01-12T09:58:24.532Z,360.00
2023-01-12T09:59:24.533Z,365.62
2023-01-12T10:00:24.544Z,371.25
2023-01-12T10:01:29.543Z,371.25
2023-01-12T10:02:24.612Z,371.25
2023-01-12T10:03:24.582Z,376.88
2023-01-12T10:04:24.485Z,382.50
2023-01-12T10:05:31.434Z,388.12
2023-01-12T10:06:24.471Z,393.75
2023-01-12T10:07:25.104Z,399.38
2023-01-12T10:08:24.441Z,405.00
2023-01-12T10:09:24.478Z,410.62
2023-01-12T10:10:24.416Z,410.62
2023-01-12T10:11:24.404Z,410.62
2023-01-12T10:12:24.420Z,410.62
2023-01-12T10:13:24.400Z,405.00
2023-01-12T10:14:24.382Z,399.38
2023-01-12T10:15:24.379Z,382.50
2023-01-12T10:16:24.443Z,365.62
2023-01-12T10:17:24.368Z,360.00
2023-01-12T10:18:24.349Z,343.12
2023-01-12T10:19:24.340Z,337.50
2023-01-12T10:20:24.369Z,337.50
2023-01-12T10:21:24.303Z,337.50
2023-01-12T10:22:24.370Z,337.50
2023-01-12T10:23:24.320Z,337.50
2023-01-12T10:24:24.283Z,337.50
2023-01-12T10:25:24.289Z,337.50
2023-01-12T10:26:24.265Z,326.25
2023-01-12T10:27:24.264Z,315.00
2023-01-12T10:28:24.288Z,303.75
2023-01-12T10:29:24.272Z,292.50
2023-01-12T10:30:24.221Z,286.88
2023-01-12T10:31:24.259Z,281.25
2023-01-12T10:32:24.692Z,264.38
2023-01-12T10:33:24.217Z,253.12
2023-01-12T10:34:24.189Z,264.38
2023-01-12T10:35:24.184Z,281.25
2023-01-12T10:36:24.175Z,275.62
2023-01-12T10:37:24.190Z,264.38
2023-01-12T10:38:24.144Z,258.75
2023-01-12T10:39:24.150Z,253.12
2023-01-12T10:40:24.126Z,253.12
2023-01-12T10:41:24.117Z,253.12
2023-01-12T10:42:24.095Z,241.88
2023-01-12T10:43:24.106Z,213.75
2023-01-12T10:44:24.110Z,196.88
2023-01-12T10:45:24.077Z,225.00
2023-01-12T10:46:24.080Z,253.12
2023-01-12T10:47:24.049Z,258.75
2023-01-12T10:48:24.108Z,236.25
2023-01-12T10:49:24.033Z,208.12
2023-01-12T10:50:24.018Z,185.62
2023-01-12T10:51:24.007Z,196.88
2023-01-12T10:52:24.011Z,191.25
2023-01-12T10:53:24.028Z,191.25
2023-01-12T10:54:24.007Z,202.50
2023-01-12T10:55:23.979Z,241.88
2023-01-12T10:56:23.954Z,253.12
2023-01-12T10:57:23.943Z,264.38
2023-01-12T10:58:23.962Z,281.25
2023-01-12T10:59:23.937Z,286.88
2023-01-12T11:00:26.137Z,292.50
2023-01-12T11:01:24.013Z,292.50
2023-01-12T11:02:24.049Z,292.50
2023-01-12T11:03:23.899Z,303.75
2023-01-12T11:04:23.900Z,309.38
2023-01-12T11:05:23.871Z,309.38
2023-01-12T11:06:23.887Z,309.38
2023-01-12T11:07:23.892Z,303.75
2023-01-12T11:08:23.832Z,298.12
2023-01-12T11:09:23.822Z,298.12
2023-01-12T11:10:23.887Z,298.12
2023-01-12T11:11:23.819Z,292.50
2023-01-12T11:12:23.880Z,292.50
2023-01-12T11:13:23.781Z,286.88
2023-01-12T11:14:24.372Z,281.25
2023-01-12T11:15:23.780Z,286.88
2023-01-12T11:16:23.835Z,281.25
2023-01-12T11:17:23.756Z,281.25
2023-01-12T11:18:23.741Z,275.62
2023-01-12T11:19:23.755Z,275.62
2023-01-12T11:20:23.717Z,286.88
2023-01-12T11:21:23.721Z,292.50
2023-01-12T11:22:23.703Z,303.75
2023-01-12T11:23:23.699Z,320.62
2023-01-12T11:24:23.674Z,337.50
2023-01-12T11:25:23.659Z,360.00
2023-01-12T11:26:23.666Z,382.50
2023-01-12T11:27:23.642Z,399.38
2023-01-12T11:28:23.721Z,410.62
2023-01-12T11:29:23.658Z,410.62
2023-01-12T11:30:23.626Z,410.62
2023-01-12T11:31:23.619Z,405.00
2023-01-12T11:32:23.589Z,405.00
2023-01-12T11:33:23.619Z,393.75
2023-01-12T11:34:23.622Z,382.50
2023-01-12T11:35:23.593Z,371.25
2023-01-12T11:36:23.562Z,365.62
2023-01-12T11:37:23.568Z,371.25
2023-01-12T11:38:23.556Z,388.12
2023-01-12T11:39:23.529Z,405.00
2023-01-12T11:40:23.528Z,427.50
2023-01-12T11:41:23.540Z,444.38
2023-01-12T11:42:23.526Z,466.88
2023-01-12T11:43:23.513Z,483.75
2023-01-12T11:44:23.477Z,500.62
2023-01-12T11:45:23.457Z,523.12
2023-01-12T11:46:23.827Z,551.25
2023-01-12T11:47:23.699Z,579.38
2023-01-12T11:48:23.430Z,658.12
2023-01-12T11:49:23.456Z,596.25
2023-01-12T11:50:23.435Z,590.62
2023-01-12T11:51:23.626Z,590.62
2023-01-12T11:52:23.411Z,613.12
2023-01-12T11:53:23.392Z,669.38
2023-01-12T11:54:23.384Z,646.88
2023-01-12T11:55:23.374Z,618.75
2023-01-12T11:56:23.513Z,635.62
2023-01-12T11:57:23.337Z,675.00
2023-01-12T11:58:23.347Z,703.12
2023-01-12T11:59:23.326Z,708.75
2023-01-12T12:00:23.357Z,736.88
2023-01-12T12:01:23.323Z,646.88
2023-01-12T12:02:23.312Z,731.25
2023-01-12T12:03:23.455Z,855.00
2023-01-12T12:04:23.279Z,776.25
2023-01-12T12:05:23.301Z,759.38
2023-01-12T12:06:23.245Z,703.12
2023-01-12T12:07:23.254Z,613.12
2023-01-12T12:08:23.229Z,697.50
2023-01-12T12:09:23.215Z,579.38
2023-01-12T12:10:23.341Z,945.00
2023-01-12T12:11:23.232Z,1051.88
2023-01-12T12:12:23.209Z,877.50
2023-01-12T12:13:23.199Z,624.38
2023-01-12T12:14:23.191Z,691.88
2023-01-12T12:15:23.206Z,832.50
2023-01-12T12:16:23.190Z,939.38
2023-01-12T12:17:23.164Z,500.62
2023-01-12T12:18:23.148Z,495.00
2023-01-12T12:19:23.179Z,511.88
2023-01-12T12:20:23.136Z,630.00
2023-01-12T12:21:23.116Z,562.50
2023-01-12T12:22:23.110Z,478.12
2023-01-12T12:23:23.087Z,489.38
2023-01-12T12:24:23.081Z,545.62
2023-01-12T12:25:23.082Z,534.38
2023-01-12T12:26:23.048Z,500.62
2023-01-12T12:27:23.058Z,438.75
2023-01-12T12:28:23.040Z,399.38
2023-01-12T12:29:23.048Z,405.00
2023-01-12T12:30:23.043Z,365.62
2023-01-12T12:31:23.085Z,393.75
2023-01-12T12:32:22.987Z,427.50
2023-01-12T12:33:23.000Z,455.62
2023-01-12T12:34:22.977Z,506.25
2023-01-12T12:35:23.036Z,534.38
2023-01-12T12:36:22.976Z,495.00
2023-01-12T12:37:22.940Z,455.62
2023-01-12T12:38:22.932Z,376.88
2023-01-12T12:39:22.918Z,331.88
2023-01-12T12:40:22.921Z,303.75
2023-01-12T12:41:22.936Z,275.62
2023-01-12T12:42:22.933Z,236.25
2023-01-12T12:43:22.907Z,219.38
2023-01-12T12:44:22.863Z,225.00
2023-01-12T12:45:22.865Z,225.00
2023-01-12T12:46:22.955Z,230.62
2023-01-12T12:47:22.863Z,241.88
2023-01-12T12:48:22.852Z,236.25
2023-01-12T12:49:22.827Z,247.50
2023-01-12T12:50:22.814Z,258.75
2023-01-12T12:51:22.793Z,270.00
2023-01-12T12:52:22.805Z,281.25
2023-01-12T12:53:22.814Z,275.62
2023-01-12T12:54:22.778Z,270.00
2023-01-12T12:55:22.767Z,253.12
2023-01-12T12:56:22.790Z,241.88